Latest Weather Observations for Cooma Airport

IDN60901

Issued at 12:11 pm EST Sunday 22 September 2019 (issued every 10 minutes, with the page automatically refreshed every 10 minutes)

About weather observations | Map of Canberra area stations | Latest observations for Canberra area | Other Formats
Station Details ID: 070217 Name: COOMA AIRPORT AWS Lat: -36.29 Lon: 148.97 Height: 930.0 m
Data from the previous 72 hours. | See also: Recent months at Cooma Airport
Date/Time
EST
Temp
°C
App
Temp
°C
Dew
Point
°C
Rel
Hum
%
Delta-T
°C
Wind Press
QNH
hPa
Press
MSL
hPa
Rain since
9am
mm
Dir  Spd
km/h
Gust
km/h
Spd
kts
Gust
kts
22/12:00pm 12.9 6.5 -5.1 28 7.0 NW 20 33 11 18 1021.0 1021.1 0.0
22/11:30am 13.2 6.2 -3.1 32 6.7 W 24 37 13 20 1021.3 1021.3 0.0
22/11:00am 12.7 6.6 -2.0 36 6.1 W 20 32 11 17 1021.4 1021.4 0.0
22/10:30am 12.4 4.8 -2.2 36 6.1 W 28 39 15 21 1021.6 1021.6 0.0
22/10:00am 11.7 4.2 -1.1 41 5.4 W 28 44 15 24 1021.7 1021.7 0.0
22/09:30am 10.8 2.6 -1.3 43 5.0 W 32 43 17 23 1021.5 1021.5 0.0
22/09:04am 10.3 2.6 0.1 49 4.4 WNW 30 48 16 26 1021.3 1021.3 0.0
22/09:00am 10.3 2.7 0.6 51 4.2 WNW 30 41 16 22 1021.3 1021.3 5.0
22/08:30am 9.8 3.7 0.7 53 3.9 WNW 22 35 12 19 1021.5 1021.5 5.0
22/08:00am 9.0 4.4 1.4 59 3.3 NW 15 24 8 13 1021.1 1021.2 5.0
22/07:30am 5.4 2.5 2.4 81 1.3 N 7 9 4 5 1021.1 1021.2 5.0
22/07:00am 3.9 2.1 1.4 84 1.0 CALM 0 0 0 0 1021.0 1021.1 5.0
22/06:30am 3.7 0.6 0.2 78 1.4 N 6 9 3 5 1020.7 1020.7 5.0
22/06:00am 3.1 -0.2 -0.9 75 1.5 NNW 6 9 3 5 1020.3 1020.3 5.0
22/05:30am 5.0 0.9 -0.4 68 2.2 NNW 11 11 6 6 1019.6 1019.6 5.0
22/05:00am 4.4 0.6 -1.0 68 2.1 NW 9 11 5 6 1019.2 1019.2 5.0
22/04:30am 4.1 -0.2 -1.7 66 2.2 N 11 17 6 9 1019.0 1019.0 5.0
22/04:00am 5.8 2.3 -1.6 59 2.9 WNW 7 15 4 8 1018.2 1018.2 5.0
22/03:30am 5.1 0.5 -0.9 65 2.4 N 13 17 7 9 1018.3 1018.3 5.0
22/03:00am 5.4 1.4 0.8 72 1.9 NNE 11 15 6 8 1018.2 1018.2 5.0
22/02:30am 7.2 2.0 0.4 62 2.8 NE 17 22 9 12 1018.0 1017.9 5.0
22/02:00am 7.7 1.2 0.2 59 3.1 W 24 35 13 19 1017.1 1017.1 5.0
22/01:30am 8.4 4.7 2.2 65 2.7 WNW 11 17 6 9 1017.6 1017.6 5.0
22/01:00am 9.2 3.8 2.5 63 3.0 NW 20 32 11 17 1017.5 1017.5 5.0
22/12:30am 9.4 4.7 3.2 65 2.8 NW 17 24 9 13 1017.5 1017.5 5.0
22/12:00am 9.3 4.2 3.9 69 2.5 NNW 20 35 11 19 1017.6 1017.6 5.0
 
Date/Time
EST
Temp
°C
App
Temp
°C
Dew
Point
°C
Rel
Hum
%
Delta-T
°C
Wind Press
QNH
hPa
Press
MSL
hPa
Rain since
9am
mm
Dir  Spd
km/h
Gust
km/h
Spd
kts
Gust
kts
21/11:30pm 9.4 4.9 4.2 70 2.4 NW 17 26 9 14 1017.3 1017.3 5.0
21/11:00pm 9.8 4.7 4.2 68 2.6 NNW 20 35 11 19 1017.1 1017.1 5.0
21/10:30pm 10.3 5.0 4.9 69 2.6 NW 22 35 12 19 1017.5 1017.5 5.0
21/10:00pm 10.7 6.0 5.3 69 2.6 NW 19 32 10 17 1017.1 1017.1 5.0
21/09:30pm 10.9 5.8 6.1 72 2.4 NW 22 30 12 16 1017.3 1017.3 5.0
21/09:00pm 11.0 6.9 6.4 73 2.3 NW 17 28 9 15 1017.4 1017.4 5.0
21/08:30pm 10.6 8.5 6.7 77 1.9 NNW 7 13 4 7 1017.6 1017.6 5.0
21/08:00pm 11.5 8.3 6.8 73 2.4 NNW 13 22 7 12 1017.1 1017.1 5.0
21/07:30pm 11.5 9.6 6.8 73 2.4 NNW 6 13 3 7 1017.2 1017.2 5.0
21/07:00pm 12.0 10.6 8.7 80 1.7 NNE 6 17 3 9 1017.0 1016.9 5.0
21/06:30pm 11.3 7.8 8.9 85 1.3 NNE 17 20 9 11 1015.9 1015.8 5.0
21/06:00pm 11.7 8.0 10.1 90 0.9 NE 20 26 11 14 1015.7 1015.6 5.0
21/05:30pm 11.5 8.6 9.6 88 1.0 N 15 20 8 11 1015.6 1015.5 5.0
21/05:21pm 11.5 8.3 9.8 89 0.9 NNW 17 26 9 14 1015.8 1015.7 5.0
21/05:00pm 11.5 6.8 9.4 87 1.1 WNW 24 39 13 21 1015.7 1015.6 4.2
21/04:40pm 13.8 8.5 9.8 77 2.2 NNW 28 44 15 24 1015.2 1015.2 2.0
21/04:30pm 14.4 10.7 9.4 72 2.7 NNW 19 30 10 16 1014.7 1014.6 1.6
21/04:07pm 15.0 9.1 8.9 67 3.3 N 30 48 16 26 1014.1 1014.0 1.6
21/04:04pm 15.4 9.8 8.6 64 3.6 N 28 48 15 26 1013.9 1013.8 1.6
21/04:00pm 15.6 10.0 8.6 63 3.7 N 28 41 15 22 1014.0 1013.9 1.6
21/03:30pm 16.1 9.2 8.8 62 3.9 N 35 56 19 30 1013.5 1013.4 1.6
21/03:00pm 15.6 7.2 9.1 65 3.5 N 43 61 23 33 1013.8 1013.7 1.6
21/02:47pm 15.3 8.1 9.0 66 3.4 N 37 57 20 31 1014.1 1014.0 1.6
21/02:30pm 15.0 8.7 9.6 70 2.9 N 33 43 18 23 1014.6 1014.5 1.6
21/02:00pm 14.5 7.3 9.3 71 2.8 N 37 46 20 25 1015.0 1014.9 1.6
21/01:30pm 13.0 7.4 10.2 83 1.5 N 30 43 16 23 1015.3 1015.3 1.6
21/01:13pm 13.4 8.2 10.2 81 1.7 N 28 46 15 25 1016.9 1016.8 1.4
21/01:00pm 13.6 9.5 11.3 86 1.3 NNW 24 37 13 20 1017.0 1016.9 1.2
21/12:30pm 13.8 7.9 10.6 81 1.8 N 32 44 17 24 1016.9 1016.8 1.0
21/12:15pm 14.3 8.4 10.3 77 2.2 N 32 50 17 27 1016.7 1016.6 0.8
21/12:00pm 14.1 10.0 11.3 83 1.6 NNE 24 39 13 21 1017.0 1016.9 0.8
21/11:30am 13.2 8.8 11.8 91 0.8 NNE 26 35 14 19 1017.0 1016.9 0.8
21/11:25am 13.0 9.0 11.7 92 0.7 NNE 24 33 13 18 1017.0 1016.9 0.8
21/11:04am 13.2 6.9 10.9 86 1.3 N 35 50 19 27 1017.4 1017.4 0.6
21/11:00am 13.7 7.2 10.5 81 1.8 N 35 50 19 27 1017.5 1017.5 0.4
21/10:30am 14.5 8.9 11.5 82 1.7 NNE 32 46 17 25 1017.1 1017.1 0.2
21/10:09am 15.9 8.5 8.2 60 4.1 N 37 56 20 30 1017.6 1017.6 0.0
21/10:00am 15.8 7.1 7.8 59 4.2 N 43 57 23 31 1017.3 1017.3 0.0
21/09:45am 15.9 8.0 7.7 58 4.3 N 39 59 21 32 1017.9 1017.8 0.0
21/09:30am 16.1 8.9 7.8 58 4.4 N 35 48 19 26 1018.1 1018.1 0.0
21/09:04am 15.9 8.0 7.9 59 4.2 N 39 59 21 32 1018.0 1017.9 0.0
21/09:00am 15.9 9.2 8.2 60 4.1 N 33 50 18 27 1018.2 1018.2 0.0
21/08:55am 16.0 10.3 8.2 60 4.1 N 28 46 15 25 1018.3 1018.3 0.0
21/08:30am 16.0 10.5 9.0 63 3.8 N 28 33 15 18 1018.5 1018.5 0.0
21/08:00am 15.1 8.8 9.0 67 3.3 NNE 32 41 17 22 1018.3 1018.3 0.0
21/07:30am 13.0 7.5 10.7 86 1.3 NE 30 35 16 19 1018.6 1018.6 0.0
21/07:00am 11.9 6.0 11.3 96 0.3 NNE 33 39 18 21 1018.4 1018.4 0.0
21/06:30am 10.7 4.8 10.5 99 0.1 NNE 32 37 17 20 1018.1 1018.1 0.0
21/06:00am 10.6 4.7 10.4 99 0.1 NNE 32 37 17 20 1018.0 1017.9 0.0
21/05:30am 10.8 5.6 10.2 96 0.3 NNE 28 32 15 17 1018.0 1017.9 0.0
21/05:00am 11.6 5.7 10.5 93 0.6 NNE 32 39 17 21 1017.8 1017.7 0.0
21/04:30am 11.7 6.2 10.4 92 0.7 NNE 30 37 16 20 1017.9 1017.8 0.0
21/04:00am 11.8 6.3 10.5 92 0.7 NNE 30 35 16 19 1018.1 1018.1 0.0
21/03:30am 10.7 6.7 10.5 99 0.1 NE 22 26 12 14 1018.3 1018.3 0.0
21/03:00am 11.1 5.6 10.6 97 0.3 NE 30 35 16 19 1018.3 1018.3 0.0
21/02:30am 11.5 5.5 10.9 96 0.3 NE 33 41 18 22 1018.5 1018.5 0.0
21/02:00am 11.5 5.5 10.7 95 0.4 NNE 33 43 18 23 1019.1 1019.1 0.0
21/01:30am 11.4 5.9 10.6 95 0.4 NNE 30 39 16 21 1019.4 1019.4 0.0
21/01:00am 11.6 6.9 10.5 93 0.6 NNE 26 39 14 21 1020.0 1020.1 0.0
21/12:30am 11.3 5.8 10.7 96 0.3 NNE 30 37 16 20 1020.2 1020.2 0.0
21/12:00am 11.6 6.3 11.1 97 0.3 NNE 30 37 16 20 1020.5 1020.5 0.0
 
Date/Time
EST
Temp
°C
App
Temp
°C
Dew
Point
°C
Rel
Hum
%
Delta-T
°C
Wind Press
QNH
hPa
Press
MSL
hPa
Rain since
9am
mm
Dir  Spd
km/h
Gust
km/h
Spd
kts
Gust
kts
20/11:30pm 11.1 6.3 10.3 95 0.4 NE 26 30 14 16 1021.0 1021.1 0.0
20/11:00pm 11.5 6.7 10.2 92 0.7 NE 26 28 14 15 1021.4 1021.4 0.0
20/10:30pm 11.7 8.1 10.6 93 0.6 NE 20 24 11 13 1021.7 1021.7 0.0
20/10:00pm 11.1 8.3 9.9 92 0.6 NE 15 19 8 10 1021.9 1022.0 0.0
20/09:30pm 11.6 7.8 9.9 89 0.9 NE 20 24 11 13 1021.9 1022.0 0.0
20/09:00pm 12.1 8.3 9.7 85 1.3 NE 20 26 11 14 1021.9 1022.0 0.0
20/08:30pm 12.1 8.1 9.1 82 1.6 NE 20 24 11 13 1021.7 1021.7 0.0
20/08:00pm 11.2 7.0 7.3 77 2.0 NE 19 20 10 11 1021.8 1021.9 0.0
20/07:30pm 12.6 8.7 7.1 69 2.8 NNE 17 20 9 11 1021.4 1021.4 0.0
20/07:00pm 14.0 10.0 6.8 62 3.7 NNE 17 20 9 11 1020.9 1021.0 0.0
20/06:30pm 14.9 10.2 6.0 55 4.5 NNE 20 24 11 13 1020.9 1021.0 0.0
20/06:00pm 15.9 11.1 5.5 50 5.2 NNE 20 26 11 14 1020.8 1020.9 0.0
20/05:30pm 17.2 12.4 5.8 47 5.8 NNE 20 26 11 14 1020.7 1020.7 0.0
20/05:00pm 18.4 13.4 6.3 45 6.3 NNE 22 32 12 17 1020.5 1020.5 0.0
20/04:30pm 18.6 12.7 5.8 43 6.6 N 26 32 14 17 1020.5 1020.5 0.0
20/04:00pm 19.7 15.3 4.6 37 7.6 NNW 17 28 9 15 1020.4 1020.4 0.0
20/03:30pm 20.8 16.2 5.6 37 7.9 N 19 28 10 15 1020.3 1020.3 0.0
20/03:00pm 20.2 15.4 5.8 39 7.5 NNW 20 26 11 14 1020.5 1020.5 0.0
20/02:30pm 20.7 15.6 5.9 38 7.7 N 22 32 12 17 1020.8 1020.9 0.0
20/02:00pm 19.4 14.6 7.2 45 6.5 N 22 32 12 17 1021.0 1021.1 0.0
20/01:32pm 20.5 14.4 8.2 45 6.7 NE 30 48 16 26 1021.3 1021.3 0.0
20/01:30pm 20.0 13.4 8.4 47 6.3 NE 33 48 18 26 1021.4 1021.4 0.0
20/01:14pm 21.2 15.3 9.1 46 6.7 NNE 30 50 16 27 1021.5 1021.5 0.0
20/01:00pm 20.6 14.9 8.3 45 6.7 NNE 28 37 15 20 1021.6 1021.6 0.0
20/12:30pm 20.0 14.2 8.0 46 6.5 NE 28 35 15 19 1022.0 1022.1 0.0
20/12:00pm 19.1 13.4 8.4 50 5.8 NE 28 35 15 19 1022.5 1022.5 0.0
20/11:30am 18.1 12.7 8.1 52 5.4 NE 26 33 14 18 1023.0 1023.1 0.0
20/11:00am 17.1 11.5 8.8 58 4.5 NNE 28 35 15 19 1023.6 1023.6 0.0
20/10:30am 16.4 10.8 8.6 60 4.2 NNE 28 35 15 19 1024.0 1024.1 0.0
20/10:00am 15.9 10.7 8.9 63 3.8 NNE 26 35 14 19 1024.3 1024.4 0.0
20/09:30am 14.8 9.6 8.7 67 3.2 NNE 26 39 14 21 1024.9 1025.0 0.0
20/09:00am 14.1 8.4 8.3 68 3.0 NNE 28 35 15 19 1025.2 1025.3 0.2
20/08:30am 12.7 6.9 8.0 73 2.4 NNE 28 35 15 19 1025.3 1025.4 0.2
20/08:00am 11.7 6.0 8.2 79 1.8 N 28 41 15 22 1025.3 1025.4 0.2
20/07:30am 10.9 6.2 9.2 89 0.9 NNE 24 30 13 16 1025.5 1025.7 0.2
20/07:00am 9.9 5.8 8.5 91 0.7 NNE 20 30 11 16 1025.6 1025.8 0.2
20/06:30am 9.3 4.9 9.0 98 0.2 NNE 22 26 12 14 1025.3 1025.4 0.2
20/06:00am 9.2 5.1 8.7 97 0.3 NNE 20 26 11 14 1025.2 1025.3 0.2
20/05:30am 9.1 4.3 9.0 99 0.1 NNE 24 28 13 15 1024.9 1025.0 0.2
20/05:00am 7.9 3.2 7.8 99 0.0 NNE 22 26 12 14 1024.8 1024.9 0.0
20/04:30am 7.5 2.7 7.4 99 0.0 NE 22 26 12 14 1024.6 1024.8 0.0
20/04:00am 7.2 2.0 7.1 99 0.0 NE 24 30 13 16 1024.4 1024.5 0.0
20/03:30am 6.4 1.4 6.3 99 0.0 NE 22 26 12 14 1024.4 1024.5 0.0
20/03:00am 6.8 1.9 6.7 99 0.0 NE 22 24 12 13 1024.6 1024.8 0.0
20/02:30am 7.1 2.2 7.0 99 0.0 NNE 22 26 12 14 1024.9 1025.0 0.0
20/02:00am 7.3 2.5 7.2 99 0.0 NE 22 24 12 13 1025.0 1025.1 0.0
20/01:30am 7.9 3.2 7.8 99 0.0 NNE 22 28 12 15 1025.3 1025.4 0.0
20/01:00am 7.5 2.7 7.5 100 0.0 NE 22 24 12 13 1025.3 1025.4 0.0
20/12:30am 7.6 2.8 7.5 99 0.0 NE 22 24 12 13 1025.6 1025.8 0.0
20/12:00am 7.7 3.5 7.6 99 0.0 NE 19 22 10 12 1025.6 1025.8 0.0
 
Date/Time
EST
Temp
°C
App
Temp
°C
Dew
Point
°C
Rel
Hum
%
Delta-T
°C
Wind Press
QNH
hPa
Press
MSL
hPa
Rain since
9am
mm
Dir  Spd
km/h
Gust
km/h
Spd
kts
Gust
kts
19/11:30pm 8.0 3.7 7.9 99 0.1 NNE 20 22 11 12 1026.0 1026.1 0.0
19/11:00pm 8.4 4.2 8.3 99 0.1 NE 20 24 11 13 1026.1 1026.2 0.0
19/10:30pm 8.2 4.2 8.1 99 0.1 NE 19 20 10 11 1026.2 1026.3 0.0
19/10:00pm 8.4 4.8 8.3 99 0.1 NE 17 19 9 10 1026.3 1026.4 0.0
19/09:30pm 7.9 4.9 7.8 99 0.0 NE 13 15 7 8 1026.3 1026.4 0.0
19/09:00pm 7.9 4.1 7.6 98 0.1 NNE 17 19 9 10 1026.2 1026.3 0.0
19/08:30pm 8.8 5.5 7.9 94 0.5 NE 15 19 8 10 1026.0 1026.1 0.0
19/08:00pm 8.5 5.0 7.1 91 0.7 NE 15 15 8 8 1025.7 1025.9 0.0
19/07:30pm 8.7 5.0 6.5 86 1.1 NE 15 17 8 9 1025.3 1025.4 0.0
19/07:00pm 10.0 6.8 6.9 81 1.5 NE 13 17 7 9 1025.1 1025.2 0.0
19/06:30pm 11.6 7.4 7.3 75 2.2 N 19 20 10 11 1024.9 1025.0 0.0
19/06:00pm 12.7 8.4 7.2 69 2.8 NNE 19 24 10 13 1024.8 1024.9 0.0
19/05:30pm 13.9 9.1 7.2 64 3.4 NNE 22 30 12 16 1024.8 1024.9 0.0
19/05:00pm 15.0 9.8 7.1 59 4.1 NNE 24 28 13 15 1024.5 1024.7 0.0
19/04:30pm 15.6 10.7 7.1 57 4.4 NNE 22 32 12 17 1024.4 1024.5 0.0
19/04:00pm 15.6 8.2 6.9 56 4.5 NNE 35 48 19 26 1024.2 1024.3 0.0
19/03:30pm 16.1 9.3 7.6 57 4.5 NNE 33 43 18 23 1024.2 1024.3 0.0
19/03:00pm 17.3 11.4 9.2 59 4.4 NNE 30 37 16 20 1024.3 1024.4 0.0
19/02:30pm 16.2 9.5 7.4 56 4.6 NNE 32 41 17 22 1024.5 1024.7 0.0
19/02:00pm 16.7 10.4 7.4 54 4.9 NNE 30 39 16 21 1024.9 1025.0 0.0
19/01:30pm 17.1 11.2 7.7 54 5.0 NNE 28 39 15 21 1025.0 1025.1 0.0
19/01:00pm 16.1 10.5 7.1 55 4.7 NNE 26 35 14 19 1025.3 1025.4 0.0
19/12:30pm 17.3 11.8 7.6 53 5.1 NNE 26 39 14 21 1025.5 1025.7 0.0

Latest Capital City Observations: Canberra | Sydney | Melbourne | Brisbane | Adelaide | Perth | Hobart | Darwin

Other formats

Comma delimited format used in spreadsheet applications
http://www.bom.gov.au/fwo/IDN60903/IDN60903.94921.axf

JavaScript Object Notation format (JSON) in row-major order
http://www.bom.gov.au/fwo/IDN60903/IDN60903.94921.json

Data quality

Most of these data are generated automatically and are frequently updated. Quality checks on data are not normally performed. It is possible for incorrect values to appear. Refer to information at About Latest Weather Observations and please check the disclaimer before using these data.